AirNav   ProFlight Series 2 Aviation Headset
 
 838 users online  

62MI Mercy Health Heliport
Shelby, Michigan, USA

GOING TO SHELBY?


FAA INFORMATION EFFECTIVE 18 JUNE 2020

Location

FAA Identifier: 62MI
Lat/Long: 43-36-25.5100N 086-21-51.9800W
43-36.425167N 086-21.866333W
43.6070861,-86.3644389
(estimated)
Elevation: 825 ft. / 251 m (estimated)
Time zone: UTC -4 (UTC -5 during Standard Time)
Zip code: 49455

Heliport Operations

Heliport use: Private use. Permission required prior to landing
Activation date: 11/2017
Control tower: no
ARTCC: CHICAGO CENTER
FSS: LANSING FLIGHT SERVICE STATION
Attendance: 
Segmented circle: no

Heliport Communications

WX AWOS-A at C04 (2.6 nm NE): 122.7 (231-861-7415)
WX AWOS-3 at FFX (19 nm SE): 118.775 (231-928-0715)

Nearby radio navigation aids

VOR radial/distance  VOR name  Freq  Var
HICr275/28.2WHITE CLOUD VOR/DME117.6001W
MKGr333/29.8MUSKEGON VORTAC115.2001W

Heliport Services

Runway Information

Helipad H1

Dimensions: 45 x 45 ft. / 14 x 14 m
Surface: asphalt, in fair condition
Latitude: 43-36.425167N
Longitude: 086-21.866333W
Elevation: 825.0 ft.
Traffic pattern: leftleft

Heliport Ownership and Management from official FAA records

Ownership: Privately-owned
Owner: MERCY HEALTH-LAKESHORE CAMPUS
72 S. STATE ST.
SHELBY, MI 49455
Phone 231-861-3009
Manager: NATHANIEL DEAN
72 S. STATE ST.
SHELBY, MI 49455
Phone 231-861-3009

Additional Remarks

FOR CD CTC CHICAGO ARTCC AT 630-906-8921.

Instrument Procedures

There are no published instrument procedures at 62MI.

Some nearby airports with instrument procedures:

C04 - Oceana County Airport (3 nm NE)
KFFX - Fremont Municipal Airport (19 nm SE)
KLDM - Mason County Airport (21 nm N)
KMKG - Muskegon County Airport (27 nm S)
7D3 - Baldwin Municipal Airport (28 nm NE)
 
Loc | Ops | Rwys | IFR | FBO | Links
Com | Nav | Svcs | Stats | Notes
Aerial photo
No photo
 
Airport distance calculator
Flying to Mercy Health Heliport? Find the distance to fly.

From to 62MI

Sunrise and sunset
Times for 14-Jul-2020
 Local
(UTC-4)
 Zulu
(UTC)
Morning civil twilight05:4409:44
Sunrise06:1910:19
Sunset21:2401:24
Evening civil twilight21:5801:58

Current date and time
Zulu (UTC)  15-Jul-2020 03:08:46
Local (UTC-4)  14-Jul-2020 23:08:46
 
METAR
KFFX 
19nm SE 
150255Z AUTO 13004KT 10SM CLR 21/16 A3002 RMK AO2 T02060163
KLDM 
22nm N 
150256Z AUTO 17007KT 10SM CLR 23/13 A2999 RMK AO2 T02310132
KMKG 
27nm S 
150255Z 10003KT 10SM SCT160 BKN210 23/13 A3003 RMK AO2 SLP164 LAST T02280133 51007
TAF
KMKG 
27nm S 
141735Z 1418/1518 21010G16KT P6SM FEW060 FM150000 17008KT P6SM SCT060 FM151000 VRB06KT P6SM VCSH BKN060
NOTAMs
Click for the latest NOTAMs
NOTAMs are issued by the DoD/FAA and will open in a separate window not controlled by AirNav.

 

 
 

Would you like to see your business listed on this page?

 If your business provides an interesting product or service to pilots, flight crews, aircraft, or users of the Mercy Health Heliport, you should consider listing it here.  To start the listing process, click on the button below
 
Add a business
 

Other Pages about Mercy Health Heliport

Update a link
 
Copyright © AirNav, LLC. All rights reserved. Privacy Policy  Contact